Time;durP1;ratioP1;P1;durP2;ratioP2;P2;SDS_P1;SDS_P2;PMS_P1;PMS_P2;Temp;Humidity;BMP_temperature;BMP_pressure;BME280_temperature;BME280_humidity;BME280_pressure;Samples;Min_cycle;Max_cycle;Signal;HPM_P1;HPM_P2
2022/11/26 00:01:43;;;;;;;13.45;9.18;;;7.80;98.30;;;;;;5045705;28;20444;-71
2022/11/26 00:04:10;;;;;;;16.75;10.00;;;7.80;98.40;;;;;;5041485;28;20429;-70
2022/11/26 00:06:40;;;;;;;17.42;9.73;;;7.80;98.50;;;;;;5035336;28;20444;-71
2022/11/26 00:09:14;;;;;;;18.40;10.10;;;7.70;98.40;;;;;;5034468;28;20884;-70
2022/11/26 00:11:42;;;;;;;18.50;9.90;;;7.70;98.60;;;;;;5035866;28;20903;-70
2022/11/26 00:14:13;;;;;;;15.75;10.25;;;7.70;98.60;;;;;;5033314;28;20436;-71
2022/11/26 00:16:40;;;;;;;17.92;9.68;;;7.60;98.90;;;;;;5065263;28;20436;-70
2022/11/26 00:19:06;;;;;;;19.00;10.00;;;7.60;98.90;;;;;;5061283;28;20505;-70
2022/11/26 00:21:39;;;;;;;17.30;10.43;;;7.60;98.90;;;;;;5059189;28;20438;-70
2022/11/26 00:24:26;;;;;;;15.93;9.25;;;7.50;99.00;;;;;;5056437;28;20446;-70
2022/11/26 00:26:53;;;;;;;16.38;10.05;;;7.60;99.10;;;;;;5029588;28;20519;-70
2022/11/26 00:29:20;;;;;;;17.95;10.18;;;7.50;99.10;;;;;;5038715;28;20430;-70
2022/11/26 00:31:47;;;;;;;15.47;10.00;;;7.50;99.00;;;;;;5025815;28;20906;-70
2022/11/26 00:34:13;;;;;;;17.60;9.85;;;7.50;99.00;;;;;;5037889;28;20429;-70
2022/11/26 00:36:42;;;;;;;12.88;9.35;;;7.50;99.00;;;;;;5032029;28;20576;-70
2022/11/26 00:39:14;;;;;;;16.58;9.57;;;7.50;99.00;;;;;;5037360;28;20932;-70
2022/11/26 00:41:41;;;;;;;14.20;9.60;;;7.40;98.90;;;;;;5045844;28;20477;-70
2022/11/26 00:44:17;;;;;;;16.17;10.40;;;7.40;99.00;;;;;;5040487;28;20816;-70
2022/11/26 00:46:44;;;;;;;15.73;10.27;;;7.40;99.10;;;;;;5054799;28;20578;-71
2022/11/26 00:49:11;;;;;;;19.08;10.60;;;7.40;99.10;;;;;;5056904;28;20436;-70
2022/11/26 00:51:38;;;;;;;16.85;10.57;;;7.40;99.10;;;;;;5041260;28;20513;-70
2022/11/26 00:54:06;;;;;;;15.52;11.35;;;7.40;99.10;;;;;;5041413;28;20538;-70
2022/11/26 00:56:34;;;;;;;21.25;10.60;;;7.30;99.20;;;;;;5028629;28;20443;-71
2022/11/26 00:59:01;;;;;;;19.83;10.87;;;7.30;99.20;;;;;;5039904;28;20461;-70
2022/11/26 01:01:28;;;;;;;16.92;10.43;;;7.30;99.40;;;;;;5037651;28;20927;-71
2022/11/26 01:03:57;;;;;;;17.80;10.88;;;7.20;99.40;;;;;;5036450;28;20427;-70
2022/11/26 01:06:28;;;;;;;19.27;12.10;;;7.20;99.50;;;;;;5033987;28;20450;-70
2022/11/26 01:08:55;;;;;;;21.50;11.98;;;7.20;99.50;;;;;;5039060;28;20564;-70
2022/11/26 01:11:23;;;;;;;17.10;11.40;;;7.20;99.50;;;;;;5040045;28;20926;-70
2022/11/26 01:13:54;;;;;;;17.65;11.40;;;7.20;99.50;;;;;;5034641;28;20425;-70
2022/11/26 01:16:23;;;;;;;15.45;11.25;;;7.10;99.50;;;;;;5030265;28;20526;-70
2022/11/26 01:18:53;;;;;;;14.95;12.00;;;7.10;99.60;;;;;;5034013;28;20468;-70
2022/11/26 01:21:20;;;;;;;18.77;12.88;;;7.10;99.70;;;;;;5037178;28;20448;-70
2022/11/26 01:23:47;;;;;;;17.10;11.98;;;7.10;99.70;;;;;;5030822;28;20437;-70
2022/11/26 01:26:16;;;;;;;18.13;11.93;;;7.00;99.80;;;;;;5026556;28;20439;-69
2022/11/26 01:28:43;;;;;;;22.20;12.50;;;7.00;99.90;;;;;;5029331;28;20479;-70
2022/11/26 01:31:16;;;;;;;18.83;13.02;;;7.00;99.90;;;;;;5031638;28;20531;-70
2022/11/26 01:33:43;;;;;;;17.00;11.80;;;7.00;99.90;;;;;;5034174;28;20539;-70
2022/11/26 01:36:28;;;;;;;17.55;12.13;;;7.00;99.90;;;;;;5027901;28;20430;-70
2022/11/26 01:38:57;;;;;;;16.02;11.27;;;7.00;99.60;;;;;;5020655;28;20427;-71
2022/11/26 01:41:42;;;;;;;19.90;12.32;;;7.00;99.80;;;;;;5039877;28;20443;-70
2022/11/26 01:44:17;;;;;;;19.23;11.82;;;7.00;99.80;;;;;;5031945;28;21127;-70
2022/11/26 01:46:46;;;;;;;15.65;11.35;;;7.00;99.80;;;;;;5040713;28;20448;-70
2022/11/26 01:49:19;;;;;;;16.52;11.50;;;7.00;99.80;;;;;;5029723;28;20437;-70
2022/11/26 01:51:48;;;;;;;16.20;11.07;;;6.90;99.70;;;;;;5037614;28;21031;-69
2022/11/26 01:54:17;;;;;;;18.77;12.90;;;6.90;99.60;;;;;;5032490;28;20457;-70
2022/11/26 01:56:47;;;;;;;20.90;12.90;;;6.80;99.60;;;;;;5029433;28;20439;-70
2022/11/26 01:59:19;;;;;;;17.10;12.23;;;6.80;99.70;;;;;;5028793;28;20524;-70
2022/11/26 02:01:49;;;;;;;17.83;12.45;;;6.80;99.70;;;;;;5037101;28;20586;-70
2022/11/26 02:04:18;;;;;;;18.65;12.13;;;6.80;99.80;;;;;;5040899;28;20444;-71
2022/11/26 02:06:48;;;;;;;17.98;12.27;;;6.70;99.90;;;;;;5046753;28;20461;-70
2022/11/26 02:09:15;;;;;;;16.30;12.70;;;6.70;99.90;;;;;;5038955;28;20425;-70
2022/11/26 02:11:42;;;;;;;15.93;12.40;;;6.70;99.90;;;;;;5040565;28;20452;-70
2022/11/26 02:14:13;;;;;;;18.60;13.10;;;6.70;99.90;;;;;;5038065;28;20783;-70
2022/11/26 02:17:05;;;;;;;18.92;12.95;;;6.70;99.90;;;;;;5042550;28;20501;-70
2022/11/26 02:20:03;;;;;;;17.85;12.10;;;6.70;99.90;;;;;;5038734;28;20444;-70
2022/11/26 02:22:59;;;;;;;18.95;13.30;;;6.60;99.90;;;;;;5040143;28;20428;-70
2022/11/26 02:25:39;;;;;;;19.58;13.50;;;6.60;99.90;;;;;;5038954;28;20452;-70
2022/11/26 02:28:16;;;;;;;18.98;12.70;;;6.60;99.90;;;;;;5038650;28;20434;-70
2022/11/26 02:30:48;;;;;;;20.17;13.43;;;6.50;99.90;;;;;;5038700;28;22754;-70
2022/11/26 02:33:19;;;;;;;19.13;13.88;;;6.50;99.90;;;;;;5034869;28;21139;-70
2022/11/26 02:35:48;;;;;;;19.17;13.90;;;6.50;99.90;;;;;;5047177;28;20429;-69
2022/11/26 02:38:19;;;;;;;20.08;13.98;;;6.40;99.90;;;;;;5034971;28;20468;-70
2022/11/26 02:40:46;;;;;;;20.23;13.02;;;6.40;99.90;;;;;;5041645;28;20439;-69
2022/11/26 02:43:15;;;;;;;15.93;13.45;;;6.40;99.90;;;;;;5040647;28;20480;-70
2022/11/26 02:45:46;;;;;;;20.10;14.35;;;6.30;99.90;;;;;;5044127;28;20764;-70
2022/11/26 02:48:17;;;;;;;16.15;13.18;;;6.30;99.90;;;;;;5039090;28;20440;-69
2022/11/26 02:50:47;;;;;;;20.23;13.57;;;6.30;99.90;;;;;;5043027;28;20558;-69
2022/11/26 02:53:17;;;;;;;22.67;14.37;;;6.20;99.90;;;;;;5040153;28;20517;-69
2022/11/26 02:55:49;;;;;;;20.80;14.50;;;6.20;99.90;;;;;;5039687;28;20436;-70
2022/11/26 02:58:16;;;;;;;22.00;13.80;;;6.20;99.90;;;;;;5035108;28;21100;-70
2022/11/26 03:00:45;;;;;;;23.08;14.52;;;6.20;99.90;;;;;;5044815;28;20460;-70
2022/11/26 03:03:22;;;;;;;22.10;14.88;;;6.20;99.90;;;;;;5052008;28;20441;-72
2022/11/26 03:05:51;;;;;;;23.60;14.93;;;6.10;99.90;;;;;;5057566;28;20569;-70
2022/11/26 03:08:18;;;;;;;20.23;13.83;;;6.20;99.90;;;;;;5046802;28;20436;-70
2022/11/26 03:10:45;;;;;;;21.33;15.52;;;6.10;99.90;;;;;;5041998;28;20447;-69
2022/11/26 03:13:12;;;;;;;17.40;13.90;;;6.10;99.90;;;;;;5042106;28;20436;-69
2022/11/26 03:15:38;;;;;;;20.50;13.40;;;6.10;99.90;;;;;;5040960;28;20433;-69
2022/11/26 03:18:07;;;;;;;20.27;14.50;;;6.10;99.90;;;;;;5043820;28;20449;-69
2022/11/26 03:20:33;;;;;;;19.15;14.18;;;6.10;99.90;;;;;;5035306;28;20517;-69
2022/11/26 03:23:00;;;;;;;19.45;13.40;;;6.00;99.90;;;;;;5046275;28;20457;-70
2022/11/26 03:25:27;;;;;;;18.60;13.10;;;6.00;99.90;;;;;;5054724;28;20533;-69
2022/11/26 03:27:54;;;;;;;19.75;13.05;;;6.00;99.90;;;;;;5053011;28;20445;-69
2022/11/26 03:30:21;;;;;;;18.52;11.98;;;6.00;99.90;;;;;;5039289;28;20548;-69
2022/11/26 03:32:47;;;;;;;15.70;11.32;;;6.00;99.90;;;;;;5041717;28;20429;-69
2022/11/26 03:35:16;;;;;;;16.25;11.20;;;6.10;99.90;;;;;;5026552;28;20892;-69
2022/11/26 03:37:42;;;;;;;15.68;11.25;;;6.10;99.90;;;;;;5034830;28;20489;-69
2022/11/26 03:40:10;;;;;;;14.20;11.07;;;6.00;99.90;;;;;;5044538;28;20429;-69
2022/11/26 03:42:37;;;;;;;16.33;12.70;;;6.00;99.90;;;;;;5041602;28;20441;-69
2022/11/26 03:45:04;;;;;;;14.00;11.32;;;6.00;99.90;;;;;;5034889;28;20487;-69
2022/11/26 03:47:31;;;;;;;14.77;10.37;;;6.00;99.90;;;;;;5033444;28;20516;-69
2022/11/26 03:49:57;;;;;;;14.77;10.45;;;6.00;99.90;;;;;;5040984;28;20429;-69
2022/11/26 03:52:26;;;;;;;14.35;10.20;;;6.00;99.90;;;;;;5034097;28;20936;-69
2022/11/26 03:54:52;;;;;;;13.88;10.50;;;5.90;99.90;;;;;;5044202;28;20433;-69
2022/11/26 03:57:21;;;;;;;16.15;10.98;;;5.90;99.90;;;;;;5038893;28;20852;-69
2022/11/26 03:59:47;;;;;;;16.90;11.40;;;5.90;99.90;;;;;;5038177;28;20441;-69
2022/11/26 04:02:14;;;;;;;16.90;10.90;;;5.90;99.90;;;;;;5045386;28;20446;-70
2022/11/26 04:04:41;;;;;;;14.95;10.98;;;5.90;99.90;;;;;;5044139;28;20457;-72
2022/11/26 04:07:08;;;;;;;15.13;10.88;;;5.80;99.90;;;;;;5053417;28;20437;-69
2022/11/26 04:09:36;;;;;;;14.55;10.10;;;5.80;99.90;;;;;;5047964;28;20439;-69
2022/11/26 04:12:02;;;;;;;14.82;10.00;;;5.80;99.90;;;;;;5035551;28;20507;-69
2022/11/26 04:14:29;;;;;;;16.10;10.10;;;5.70;99.90;;;;;;5041145;28;20433;-69
2022/11/26 04:16:56;;;;;;;16.08;10.40;;;5.80;99.90;;;;;;5038839;28;20464;-69
2022/11/26 04:19:23;;;;;;;11.23;9.23;;;5.80;99.90;;;;;;5045877;28;20433;-69
2022/11/26 04:21:49;;;;;;;12.15;10.18;;;5.70;99.90;;;;;;5033643;28;20957;-69
2022/11/26 04:24:16;;;;;;;11.45;9.70;;;5.70;99.90;;;;;;5033440;28;20446;-69
2022/11/26 04:26:44;;;;;;;13.18;9.90;;;5.70;99.90;;;;;;5038722;28;20443;-69
2022/11/26 04:29:11;;;;;;;11.20;9.52;;;5.70;99.90;;;;;;5041909;28;20452;-68
2022/11/26 04:31:38;;;;;;;15.48;9.55;;;5.70;99.90;;;;;;5036544;28;20894;-68
2022/11/26 04:34:04;;;;;;;13.05;9.82;;;5.60;99.90;;;;;;5041829;28;20435;-69
2022/11/26 04:36:31;;;;;;;13.25;10.02;;;5.60;99.90;;;;;;5035600;28;20448;-69
2022/11/26 04:38:58;;;;;;;11.57;9.25;;;5.60;99.90;;;;;;5037856;28;20516;-69
2022/11/26 04:41:25;;;;;;;15.95;11.50;;;5.60;99.90;;;;;;5038477;28;20433;-68
2022/11/26 04:43:53;;;;;;;15.40;10.13;;;5.60;99.90;;;;;;5040861;28;20429;-69
2022/11/26 04:46:20;;;;;;;12.32;9.55;;;5.60;99.90;;;;;;5034831;28;20456;-69
2022/11/26 04:48:46;;;;;;;13.52;9.50;;;5.70;99.90;;;;;;5041040;28;20837;-69
2022/11/26 04:51:13;;;;;;;13.75;9.23;;;5.70;99.90;;;;;;5035495;28;20429;-69
2022/11/26 04:53:40;;;;;;;12.00;8.82;;;5.70;99.90;;;;;;5036874;28;20433;-74
2022/11/26 04:56:07;;;;;;;12.60;9.67;;;5.60;99.90;;;;;;5036490;28;20433;-71
2022/11/26 04:58:34;;;;;;;18.25;9.93;;;5.60;99.90;;;;;;5040729;28;20440;-70
2022/11/26 05:01:02;;;;;;;13.70;9.93;;;5.60;99.90;;;;;;5030516;28;20436;-71
2022/11/26 05:03:29;;;;;;;11.10;9.18;;;5.50;99.90;;;;;;5032662;28;20437;-70
2022/11/26 05:05:55;;;;;;;13.90;9.85;;;5.50;99.90;;;;;;5035417;28;20415;-70
2022/11/26 05:08:22;;;;;;;11.87;9.60;;;5.50;99.90;;;;;;5039903;28;21087;-70
2022/11/26 05:10:52;;;;;;;12.95;9.30;;;5.50;99.90;;;;;;5045164;28;20440;-70
2022/11/26 05:13:19;;;;;;;13.98;9.35;;;5.50;99.90;;;;;;5038731;28;20437;-70
2022/11/26 05:15:46;;;;;;;11.90;8.20;;;5.50;99.90;;;;;;5035835;28;20459;-70
2022/11/26 05:18:14;;;;;;;13.95;9.60;;;5.50;99.90;;;;;;5031858;28;20884;-70
2022/11/26 05:20:41;;;;;;;12.52;8.93;;;5.50;99.90;;;;;;5041254;28;20421;-70
2022/11/26 05:23:07;;;;;;;13.35;9.20;;;5.50;99.90;;;;;;5030373;28;20918;-70
2022/11/26 05:25:34;;;;;;;13.75;9.45;;;5.50;99.90;;;;;;5031884;28;20804;-70
2022/11/26 05:28:01;;;;;;;8.90;7.80;;;5.40;99.90;;;;;;5032981;28;20449;-71
2022/11/26 05:30:28;;;;;;;13.40;8.25;;;5.40;99.90;;;;;;5041093;28;20452;-70
2022/11/26 05:32:54;;;;;;;13.10;8.32;;;5.40;99.90;;;;;;5036415;28;20417;-71
2022/11/26 05:35:23;;;;;;;11.20;8.20;;;5.40;99.90;;;;;;5028825;28;20868;-71
2022/11/26 05:37:49;;;;;;;12.60;8.50;;;5.40;99.90;;;;;;5034633;28;20482;-71
2022/11/26 05:40:16;;;;;;;13.43;7.72;;;5.40;99.90;;;;;;5044099;28;20421;-71
2022/11/26 05:42:43;;;;;;;11.93;8.23;;;5.40;99.90;;;;;;5044303;28;20432;-71
2022/11/26 05:45:10;;;;;;;12.10;8.30;;;5.40;99.90;;;;;;5033771;28;20425;-72
2022/11/26 05:47:37;;;;;;;12.65;8.75;;;5.40;99.90;;;;;;5036697;28;20440;-72
2022/11/26 05:50:04;;;;;;;11.18;8.30;;;5.30;99.90;;;;;;5039369;28;20417;-71
2022/11/26 05:52:32;;;;;;;10.40;7.68;;;5.40;99.90;;;;;;5033160;28;20474;-71
2022/11/26 05:54:59;;;;;;;11.77;7.90;;;5.30;99.90;;;;;;5026281;28;20438;-71
2022/11/26 05:57:26;;;;;;;12.65;7.75;;;5.40;99.90;;;;;;5034797;28;20437;-71
2022/11/26 05:59:53;;;;;;;12.18;7.95;;;5.30;99.90;;;;;;5039575;28;20783;-71
2022/11/26 06:02:19;;;;;;;11.98;7.95;;;5.30;99.90;;;;;;5039072;28;20884;-71
2022/11/26 06:04:46;;;;;;;13.73;7.67;;;5.30;99.90;;;;;;5038687;28;20951;-71
2022/11/26 06:07:13;;;;;;;9.13;7.30;;;5.40;99.90;;;;;;5031394;28;20436;-71
2022/11/26 06:09:41;;;;;;;12.70;7.68;;;5.40;99.90;;;;;;5037492;28;21206;-71
2022/11/26 06:12:08;;;;;;;12.00;7.80;;;5.40;99.90;;;;;;5037960;28;20554;-71
2022/11/26 06:14:35;;;;;;;13.07;7.85;;;5.30;99.90;;;;;;5023130;28;20905;-71
2022/11/26 06:17:01;;;;;;;10.15;7.72;;;5.30;99.90;;;;;;5032747;28;20538;-62
2022/11/26 06:19:28;;;;;;;10.25;7.30;;;5.30;99.90;;;;;;5027735;28;20429;-62
2022/11/26 06:21:55;;;;;;;8.48;6.60;;;5.30;99.90;;;;;;5035159;28;20437;-72
2022/11/26 06:24:22;;;;;;;11.15;7.47;;;5.20;99.90;;;;;;5032664;28;20545;-72
2022/11/26 06:26:50;;;;;;;11.05;8.00;;;5.20;99.90;;;;;;5035698;28;20433;-72
2022/11/26 06:29:16;;;;;;;7.80;6.50;;;5.20;99.90;;;;;;5037556;28;20500;-72
2022/11/26 06:31:43;;;;;;;11.15;7.00;;;5.20;99.90;;;;;;5035506;28;20436;-72
2022/11/26 06:34:10;;;;;;;7.70;6.90;;;5.10;99.90;;;;;;5026731;28;20488;-72
2022/11/26 06:36:37;;;;;;;8.50;6.60;;;5.10;99.90;;;;;;5039421;28;20434;-71
2022/11/26 06:39:03;;;;;;;11.30;6.40;;;5.10;99.90;;;;;;5041397;28;20437;-71
2022/11/26 06:41:30;;;;;;;9.32;6.82;;;5.10;99.90;;;;;;5043505;28;20421;-72
2022/11/26 06:44:00;;;;;;;10.82;6.80;;;5.10;99.90;;;;;;5042746;28;20431;-71
2022/11/26 06:46:27;;;;;;;8.55;6.60;;;5.10;99.90;;;;;;5035896;28;20518;-71
2022/11/26 06:48:54;;;;;;;9.88;7.03;;;5.10;99.90;;;;;;5043422;28;20486;-71
2022/11/26 06:51:26;;;;;;;12.00;6.88;;;5.10;99.90;;;;;;5039192;28;20420;-71
2022/11/26 06:53:53;;;;;;;11.85;7.07;;;5.10;99.90;;;;;;5042848;28;20421;-72
2022/11/26 06:56:20;;;;;;;8.70;6.63;;;5.10;99.90;;;;;;5041580;28;20444;-71
2022/11/26 06:58:47;;;;;;;10.50;6.90;;;5.10;99.90;;;;;;5043029;28;20413;-71
2022/11/26 07:01:17;;;;;;;12.48;6.43;;;5.10;99.90;;;;;;5040078;28;20433;-71
2022/11/26 07:03:43;;;;;;;11.35;7.68;;;5.10;99.90;;;;;;5041431;28;20444;-71
2022/11/26 07:06:17;;;;;;;11.73;7.37;;;5.10;99.90;;;;;;5043012;28;20498;-71
2022/11/26 07:08:44;;;;;;;8.15;6.85;;;5.00;99.90;;;;;;5043175;28;20852;-72
2022/11/26 07:11:10;;;;;;;10.07;7.15;;;5.10;99.90;;;;;;5040479;28;20508;-71
2022/11/26 07:13:37;;;;;;;8.30;7.13;;;5.10;99.90;;;;;;5042254;28;20448;-71
2022/11/26 07:16:05;;;;;;;12.50;7.60;;;5.00;99.90;;;;;;5039352;28;20445;-71
2022/11/26 07:18:33;;;;;;;10.13;7.63;;;5.10;99.90;;;;;;5035007;28;20433;-71
2022/11/26 07:21:04;;;;;;;9.18;7.22;;;5.10;99.90;;;;;;5046403;28;20471;-72
2022/11/26 07:23:31;;;;;;;8.48;7.00;;;5.10;99.90;;;;;;5045703;28;20425;-72
2022/11/26 07:25:58;;;;;;;10.68;7.13;;;5.10;99.90;;;;;;5047941;28;20497;-71
2022/11/26 07:28:25;;;;;;;9.88;7.47;;;5.10;99.90;;;;;;5058914;28;20668;-72
2022/11/26 07:30:52;;;;;;;11.50;7.05;;;5.10;99.90;;;;;;5060282;28;20428;-72
2022/11/26 07:33:20;;;;;;;10.32;7.05;;;5.20;99.90;;;;;;5055353;28;20414;-75
2022/11/26 07:35:48;;;;;;;10.52;6.90;;;5.20;99.90;;;;;;5056050;28;20851;-73
2022/11/26 07:38:14;;;;;;;11.05;6.95;;;5.20;99.90;;;;;;5051969;28;20436;-74
2022/11/26 07:40:41;;;;;;;11.10;7.72;;;5.20;99.90;;;;;;5056930;28;20421;-71
2022/11/26 07:43:08;;;;;;;9.17;7.10;;;5.20;99.90;;;;;;5050290;28;20856;-72
2022/11/26 07:45:36;;;;;;;8.40;7.43;;;5.30;99.90;;;;;;5043725;28;20437;-72
2022/11/26 07:48:03;;;;;;;10.30;7.10;;;5.30;99.90;;;;;;5044540;28;20446;-71
2022/11/26 07:50:30;;;;;;;8.70;6.97;;;5.40;99.90;;;;;;5040939;28;20436;-72
2022/11/26 07:52:58;;;;;;;10.32;6.75;;;5.50;99.90;;;;;;5044863;28;20428;-72
2022/11/26 07:55:25;;;;;;;8.77;6.60;;;5.50;99.90;;;;;;5041020;28;20911;-71
2022/11/26 07:57:51;;;;;;;8.70;7.20;;;5.60;99.90;;;;;;5042619;28;20441;-71
2022/11/26 08:00:19;;;;;;;8.70;6.60;;;5.60;99.90;;;;;;5044581;28;20495;-70
2022/11/26 08:02:46;;;;;;;9.40;6.87;;;5.70;99.90;;;;;;5045294;28;20555;-70
2022/11/26 08:05:13;;;;;;;8.38;5.93;;;5.80;99.90;;;;;;5050581;22;20538;-69
2022/11/26 08:07:39;;;;;;;6.72;5.80;;;6.00;99.80;;;;;;5028052;28;20430;-68
2022/11/26 08:10:09;;;;;;;8.77;6.18;;;6.10;99.20;;;;;;5028367;28;20439;-67
2022/11/26 08:12:35;;;;;;;8.55;6.80;;;6.10;98.60;;;;;;5020126;28;20443;-69
2022/11/26 08:15:02;;;;;;;7.20;6.07;;;6.20;98.30;;;;;;5044895;28;20489;-68
2022/11/26 08:17:29;;;;;;;7.68;6.00;;;6.20;97.80;;;;;;5044338;28;20433;-68
2022/11/26 08:19:56;;;;;;;7.35;6.18;;;6.30;97.60;;;;;;5049016;28;20444;-69
2022/11/26 08:22:22;;;;;;;7.78;5.57;;;6.40;97.70;;;;;;5040752;28;20419;-66
2022/11/26 08:24:49;;;;;;;7.68;5.82;;;6.50;96.50;;;;;;5044496;28;20954;-69
2022/11/26 08:27:17;;;;;;;6.50;5.63;;;6.50;96.30;;;;;;5040761;28;20413;-68
2022/11/26 08:29:44;;;;;;;6.63;5.80;;;6.60;96.70;;;;;;5048837;28;20421;-69
2022/11/26 08:32:11;;;;;;;8.38;5.55;;;6.70;96.50;;;;;;5043945;28;20433;-69
2022/11/26 08:34:38;;;;;;;7.80;5.50;;;6.80;95.90;;;;;;5039880;28;20433;-67
2022/11/26 08:37:05;;;;;;;6.13;5.38;;;6.80;95.60;;;;;;5037996;28;20436;-65
2022/11/26 08:39:31;;;;;;;6.68;5.43;;;6.90;94.90;;;;;;5042135;28;20448;-66
2022/11/26 08:41:58;;;;;;;7.22;5.10;;;6.90;94.50;;;;;;5045406;28;20931;-67
2022/11/26 08:44:26;;;;;;;7.68;5.45;;;7.00;94.30;;;;;;5045667;28;20425;-67
2022/11/26 08:46:55;;;;;;;7.20;5.80;;;7.00;94.20;;;;;;5046023;28;20439;-65
2022/11/26 08:49:21;;;;;;;7.70;5.40;;;7.10;94.20;;;;;;5048241;28;20422;-67
2022/11/26 08:51:48;;;;;;;7.97;5.43;;;7.20;94.10;;;;;;5034842;28;20423;-69
2022/11/26 08:54:15;;;;;;;7.30;5.50;;;7.30;93.70;;;;;;5045915;28;20993;-68
2022/11/26 08:56:42;;;;;;;8.45;5.65;;;7.40;93.60;;;;;;5047790;28;20449;-68
2022/11/26 08:59:08;;;;;;;7.47;6.10;;;7.50;93.20;;;;;;5048167;28;20531;-64
2022/11/26 09:01:36;;;;;;;7.00;5.10;;;7.70;92.80;;;;;;5044035;28;20985;-66
2022/11/26 09:04:04;;;;;;;8.27;5.63;;;7.90;92.50;;;;;;5047408;28;20915;-67
2022/11/26 09:06:33;;;;;;;8.15;5.30;;;8.00;91.80;;;;;;5048357;28;20417;-67
2022/11/26 09:09:12;;;;;;;6.70;5.05;;;8.20;91.50;;;;;;5037799;28;20504;-64
2022/11/26 09:11:41;;;;;;;7.60;5.88;;;8.30;90.60;;;;;;5047984;28;20466;-66
2022/11/26 09:14:08;;;;;;;7.72;5.13;;;8.30;90.10;;;;;;5040311;28;20930;-66
2022/11/26 09:16:37;;;;;;;6.10;5.00;;;8.30;90.60;;;;;;5046363;28;20425;-68
2022/11/26 09:19:05;;;;;;;7.32;5.72;;;8.30;90.30;;;;;;5045381;28;20447;-67
2022/11/26 09:21:33;;;;;;;8.90;5.75;;;8.30;90.60;;;;;;5038949;28;20514;-68
2022/11/26 09:23:59;;;;;;;7.93;5.73;;;8.40;90.20;;;;;;5039752;28;20436;-67
2022/11/26 09:26:27;;;;;;;7.57;5.90;;;8.50;89.80;;;;;;5042025;28;20429;-68
2022/11/26 09:28:54;;;;;;;6.95;5.20;;;8.60;90.40;;;;;;5038082;28;20923;-66
2022/11/26 09:31:21;;;;;;;7.60;5.50;;;8.70;88.90;;;;;;5042402;28;20437;-67
2022/11/26 09:33:50;;;;;;;7.88;5.40;;;8.60;89.00;;;;;;5038110;28;20953;-68
2022/11/26 09:36:18;;;;;;;7.82;5.40;;;8.60;88.90;;;;;;5035433;28;20433;-67
2022/11/26 09:38:45;;;;;;;7.60;5.50;;;8.60;90.00;;;;;;5044146;28;20413;-67
2022/11/26 09:41:24;;;;;;;8.32;5.75;;;8.80;89.70;;;;;;5046247;28;20433;-68
2022/11/26 09:44:07;;;;;;;5.32;4.80;;;8.90;89.20;;;;;;5037386;28;20442;-70
2022/11/26 09:46:40;;;;;;;9.70;5.72;;;9.10;87.80;;;;;;5037079;28;20428;-70
2022/11/26 09:49:13;;;;;;;7.15;5.25;;;9.20;88.00;;;;;;5040435;28;20464;-67
2022/11/26 09:51:42;;;;;;;7.35;5.60;;;9.30;87.20;;;;;;5038454;28;20437;-68
2022/11/26 09:54:15;;;;;;;6.07;5.40;;;9.40;85.90;;;;;;5042023;28;20432;-70
2022/11/26 09:56:42;;;;;;;7.60;5.50;;;9.50;85.90;;;;;;5047258;28;20433;-68
2022/11/26 09:59:13;;;;;;;7.27;5.70;;;9.50;85.70;;;;;;5045281;28;20433;-69
2022/11/26 10:01:41;;;;;;;8.27;5.53;;;9.50;85.90;;;;;;5037508;28;20460;-68
2022/11/26 10:04:16;;;;;;;7.50;4.90;;;9.60;84.60;;;;;;5037470;28;20988;-67
2022/11/26 10:06:51;;;;;;;6.43;5.50;;;9.70;84.70;;;;;;5040155;28;20451;-67
2022/11/26 10:09:45;;;;;;;8.65;5.60;;;9.80;84.80;;;;;;5027095;28;20516;-68
2022/11/26 10:12:24;;;;;;;6.50;5.70;;;10.00;83.60;;;;;;5042674;28;20425;-66
2022/11/26 10:14:59;;;;;;;7.85;5.40;;;10.00;82.80;;;;;;5026693;28;21045;-67
2022/11/26 10:17:35;;;;;;;7.25;5.20;;;10.00;82.20;;;;;;5038760;28;20421;-67
2022/11/26 10:20:35;;;;;;;6.10;5.50;;;10.00;83.20;;;;;;5036592;28;20423;-69
2022/11/26 10:23:07;;;;;;;7.15;5.43;;;9.90;83.20;;;;;;5026750;28;20928;-68
2022/11/26 10:25:39;;;;;;;8.35;5.30;;;10.00;83.50;;;;;;5041073;28;20437;-68
2022/11/26 10:28:17;;;;;;;5.90;4.88;;;9.90;82.80;;;;;;5045203;28;20417;-68
2022/11/26 10:30:45;;;;;;;7.90;5.68;;;9.80;83.20;;;;;;5042710;28;20429;-69
2022/11/26 10:33:17;;;;;;;7.45;5.78;;;9.70;84.10;;;;;;5041902;28;20419;-67
2022/11/26 10:35:49;;;;;;;7.53;5.55;;;9.70;84.60;;;;;;5026754;28;20457;-67
2022/11/26 10:38:16;;;;;;;7.30;5.80;;;9.60;84.80;;;;;;5034570;28;20441;-67
2022/11/26 10:40:43;;;;;;;6.35;5.05;;;9.60;84.50;;;;;;5047299;28;20836;-68
2022/11/26 10:43:17;;;;;;;7.22;5.00;;;9.60;84.90;;;;;;5046840;28;20419;-68
2022/11/26 10:45:45;;;;;;;6.40;5.60;;;9.60;85.30;;;;;;5040672;28;20460;-66
2022/11/26 10:48:20;;;;;;;10.63;7.05;;;9.70;85.40;;;;;;5041081;28;20420;-67
2022/11/26 10:51:01;;;;;;;7.68;6.82;;;9.80;85.50;;;;;;5037484;28;20433;-67
2022/11/26 10:53:30;;;;;;;6.22;5.55;;;10.00;85.20;;;;;;5045411;28;20414;-68
2022/11/26 10:55:59;;;;;;;8.70;5.70;;;10.10;84.00;;;;;;5032115;28;20429;-77
2022/11/26 10:58:30;;;;;;;7.20;5.15;;;10.30;83.50;;;;;;5038877;28;20428;-76
2022/11/26 11:00:59;;;;;;;7.32;4.90;;;10.40;83.20;;;;;;5044100;28;20512;-66
2022/11/26 11:03:29;;;;;;;8.43;5.40;;;10.50;81.90;;;;;;5043819;28;20414;-68
2022/11/26 11:06:26;;;;;;;5.63;4.90;;;10.50;81.70;;;;;;5045855;28;20452;-68
2022/11/26 11:08:55;;;;;;;8.70;5.30;;;10.40;81.60;;;;;;5042363;28;20958;-69
2022/11/26 11:11:24;;;;;;;6.15;5.00;;;10.30;82.40;;;;;;5045181;28;20421;-70
2022/11/26 11:13:51;;;;;;;5.60;5.10;;;10.20;83.00;;;;;;5039105;28;20429;-67
2022/11/26 11:16:26;;;;;;;8.05;4.50;;;10.20;83.10;;;;;;5045729;28;20425;-67
2022/11/26 11:18:56;;;;;;;6.35;4.47;;;10.10;83.20;;;;;;5038729;28;20487;-74
2022/11/26 11:21:28;;;;;;;7.00;4.15;;;10.10;83.90;;;;;;5043060;28;20433;-69
2022/11/26 11:24:07;;;;;;;8.43;4.65;;;10.20;83.90;;;;;;5045602;28;20429;-69
2022/11/26 11:26:41;;;;;;;7.55;4.60;;;10.10;83.90;;;;;;5048155;28;20421;-68
2022/11/26 11:29:24;;;;;;;6.40;4.70;;;10.10;84.20;;;;;;5040640;28;20456;-69
2022/11/26 11:31:51;;;;;;;7.50;4.30;;;10.10;84.50;;;;;;5047909;28;20428;-69
2022/11/26 11:34:22;;;;;;;5.88;4.25;;;10.10;84.30;;;;;;5049888;28;20417;-70
2022/11/26 11:36:59;;;;;;;7.57;5.20;;;10.10;84.60;;;;;;5036859;28;20436;-69
2022/11/26 11:39:30;;;;;;;6.95;4.50;;;10.10;84.20;;;;;;5048977;28;20409;-69
2022/11/26 11:41:59;;;;;;;5.80;4.20;;;10.20;83.80;;;;;;5047259;28;20441;-69
2022/11/26 11:44:31;;;;;;;7.60;4.80;;;10.20;84.00;;;;;;5042076;28;20441;-69
2022/11/26 11:47:22;;;;;;;7.45;4.65;;;10.20;84.20;;;;;;5038585;28;20423;-69
2022/11/26 11:50:06;;;;;;;7.03;4.80;;;10.30;83.00;;;;;;5043998;28;20915;-69
2022/11/26 11:52:43;;;;;;;7.03;4.20;;;10.40;82.80;;;;;;5045452;28;20536;-68
2022/11/26 11:55:21;;;;;;;8.70;4.50;;;10.30;83.40;;;;;;5040178;28;20417;-68
2022/11/26 11:58:08;;;;;;;6.40;4.80;;;10.20;84.10;;;;;;5046946;28;20421;-66
2022/11/26 12:00:45;;;;;;;6.90;4.60;;;10.10;83.60;;;;;;5041377;28;20433;-68
2022/11/26 12:03:41;;;;;;;8.60;4.60;;;10.10;84.40;;;;;;5041706;28;20421;-68
2022/11/26 12:06:21;;;;;;;6.60;4.75;;;10.00;83.70;;;;;;5017094;28;20414;-70
2022/11/26 12:09:01;;;;;;;6.88;4.15;;;9.90;84.60;;;;;;5044119;28;20504;-67
2022/11/26 12:11:40;;;;;;;6.80;4.05;;;9.80;85.30;;;;;;5048443;28;20417;-70
2022/11/26 12:14:13;;;;;;;9.25;4.88;;;9.80;85.10;;;;;;5039055;28;20448;-68
2022/11/26 12:16:44;;;;;;;6.63;4.50;;;9.80;84.60;;;;;;5047169;28;20516;-69
2022/11/26 12:19:18;;;;;;;6.57;4.28;;;9.80;84.90;;;;;;5048666;28;20891;-70
2022/11/26 12:21:51;;;;;;;6.53;4.57;;;9.80;84.90;;;;;;5048711;28;20417;-70
2022/11/26 12:24:25;;;;;;;8.23;4.10;;;9.80;84.90;;;;;;5040497;28;20417;-69
2022/11/26 12:26:57;;;;;;;7.15;4.10;;;9.90;84.60;;;;;;5045913;28;20409;-69
2022/11/26 12:29:35;;;;;;;6.50;4.20;;;9.90;84.80;;;;;;5040870;28;20425;-69
2022/11/26 12:32:11;;;;;;;7.05;4.13;;;9.90;84.50;;;;;;5042963;28;20801;-69
2022/11/26 12:34:44;;;;;;;5.75;3.95;;;9.90;85.00;;;;;;5044081;28;20425;-69
2022/11/26 12:37:19;;;;;;;7.00;4.20;;;9.90;84.60;;;;;;5048113;28;20429;-67
2022/11/26 12:39:53;;;;;;;6.50;4.47;;;10.00;85.00;;;;;;5041481;28;20424;-68
2022/11/26 12:42:27;;;;;;;6.05;3.95;;;10.10;85.10;;;;;;5035492;28;20439;-68
2022/11/26 12:45:02;;;;;;;6.33;3.87;;;10.20;84.50;;;;;;5047828;28;20424;-67
2022/11/26 12:47:34;;;;;;;5.53;4.13;;;10.30;84.40;;;;;;5036357;28;20921;-67
2022/11/26 12:50:12;;;;;;;6.07;3.60;;;10.40;82.40;;;;;;5047646;28;20421;-67
2022/11/26 12:52:45;;;;;;;5.28;3.58;;;10.30;82.40;;;;;;5044727;28;21612;-67
2022/11/26 12:55:19;;;;;;;6.47;4.10;;;10.30;82.40;;;;;;5046620;28;20420;-67
2022/11/26 12:57:52;;;;;;;6.28;4.25;;;10.20;82.90;;;;;;5045910;28;20437;-67
2022/11/26 13:00:22;;;;;;;5.20;3.88;;;10.10;83.50;;;;;;5047950;28;20428;-70